This is the latest recevied weather packets stored in our database for station/object IT9CYW-10. If no packets are shown the sender has not sent any weather packets the latest 10 day(s).
| Time | Temp. | Humidity | Pressure | Rain* | Wind** | Luminosity | Snow |
|---|---|---|---|---|---|---|---|
| 1777062468 | 10.56° C | 81% | 998.9 hPa | - | - | 0 W/m² | - |
| 1777061568 | 10° C | 83% | 999 hPa | - | - | 0 W/m² | - |
| 1777060668 | 10° C | 83% | 999 hPa | - | - | 0 W/m² | - |
| 1777059768 | 10.56° C | 83% | 999 hPa | - | - | 0 W/m² | - |
| 1777058867 | 10.56° C | 82% | 998.9 hPa | - | - | 0 W/m² | - |
| 1777057967 | 10.56° C | 81% | 998.7 hPa | - | - | 0 W/m² | - |
| 1777057067 | 11.11° C | 79% | 998.5 hPa | - | - | 0 W/m² | - |
| 1777056167 | 11.67° C | 76% | 998.2 hPa | - | - | 0 W/m² | - |
| 1777055267 | 12.78° C | 73% | 998.2 hPa | - | - | 0 W/m² | - |
| 1777054367 | 12.78° C | 69% | 998.2 hPa | - | - | 0 W/m² | - |
| 1777053467 | 13.89° C | 66% | 998 hPa | - | - | 1 W/m² | - |
| 1777052565 | 14.44° C | 62% | 997.9 hPa | - | - | 6 W/m² | - |
| 1777050765 | 15.56° C | 55% | 997.9 hPa | - | - | 23 W/m² | - |
| 1777049865 | 15.56° C | 55% | 998 hPa | - | - | 29 W/m² | - |
| 1777048965 | 16.11° C | 52% | 998.2 hPa | - | - | 34 W/m² | - |
| 1777048065 | 16.11° C | 53% | 998.2 hPa | - | - | 38 W/m² | - |
| 1777047164 | 16.67° C | 50% | 998 hPa | - | - | 49 W/m² | - |
| 1777046264 | 16.67° C | 49% | 998 hPa | - | - | 81 W/m² | - |
| 1777045364 | 17.22° C | 47% | 998.2 hPa | - | - | 165 W/m² | - |
| 1777044464 | 17.22° C | 43% | 998.2 hPa | - | - | 212 W/m² | - |
| 1777043564 | 17.78° C | 42% | 998 hPa | - | - | 266 W/m² | - |
| 1777042664 | 17.78° C | 42% | 998.2 hPa | - | - | 317 W/m² | - |
| 1777041764 | 18.33° C | 41% | 998 hPa | - | - | 363 W/m² | - |
| 1777040863 | 18.33° C | 41% | 998.2 hPa | - | - | 419 W/m² | - |
| 1777039963 | 18.89° C | 39% | 998.4 hPa | - | - | 510 W/m² | - |
* Rain since midnight (hover to see other rain measurements)
** Current wind speed in m/s (hover to see current wind gust speed)